Tekirdag, Turkey
Current Conditions -  °F | °C
As of 12:20 AM on Saturday 25 Oct 2014 (Local Time) from LTBU Reporting Station
Rain Showers Rain Showers  
Wind Chill: 57°   Ceiling: 2500
Heat Index: 57°   Visibility: 4mi
Dew Point: 55°   Wind: 25mph
Humidity: 94%   Direction: 40°NE
Pressure: 29.83"   Gusts: NA
Location:  40.98°N, 27.52°E
Report Text: LTBU 242120Z 04022KT 7000 SHRA SCT009 BKN025 BKN080 14/13 Q1010
Loading
Personal Weather Stations






























Interactive Weather Map
Tropical Storm Tracking
New forecast layout! Learn more

10-Day Weather Forecast

Advertisements
Track Severe Weather on mobile